Airfield :
LOGIN :

Register | Disclaimer

   EN    FR    IT 

 










Legend :    VFR   Marginal VFR   IFR   Intensive IFR   Very Intensive IFR
Visi :
Ceiling :
>= 8 km
>= 3000ft
5 to 8 km
1000 to 3000 ft
1500m to 5 km
500 to 1000 ft
800 to 1500m
200 to 500 ft
< 800m
< 200 ft
Symbols :   Thunderstorms  Fog  Heavy snow  Heavy precipitations  Wind > 20 kt
SIGMETs :     Misc.  Thunderstorms  Icing  Turbulence  Mountain Waves  Volcanic Ashes






- Airport Elevation : 386 ft
- IATA code : QOE


ETNN - Nörvenich Airforce Base

CURRENT METAR :
  • 271720Z 33007KT 1000 SN BR OVC001 00/M00 Q0998 RERASN RED

EXPIRED METARs :
  • 271702Z 34006KT 1200 SN BR OVC002 00/M00 Q0997 RERASN AMB
  • 271650Z 35007KT 3000 RASN BR SCT002 OVC005 01/00 Q0996 YLO
  • 271620Z 03007KT 3000 RASN BR SCT002 OVC007 01/00 Q0995 YLO
  • 271601Z 06009KT 3500 RASN BR SCT004 OVC010 01/00 Q0994 YLO FCST CANCEL
  • 271533Z 05012KT 2500 RASN BR SCT004 OVC010 01/00 Q0993 YLO GRN TEMPO RED

TAF AMD TAF ETNN
Valid from the 27 at 15:00 until the 28 at 00:00 UTC


271600Z 2715/2724 08010KT 5000 -RASN SCT005 OVC010
TEMPO 2715/2716 03012G22KT 2500 RASN BKN005 OVC010
BECMG 2716/2718 30010KT 2000 -SN BKN003 OVC010
TEMPO 2716/2720 29012G22KT 0500 SNRA BKN001 OVC005
BECMG 2720/2722 29010KT 7000 NSW SCT006 BKN010
TEMPO 2722/2724 30012G22KT 2000 SHSN SCT002 BKN005CB CANCEL BY ETGL



MET'MAP, your aeronautical weather chart ! - Copyright ORBIFLY December 2007 - Disclaimer

ORBIFLY MET'MAP TEAM :

Programming & Development : Alexandra Zaïnal
Concept & original design : Baudouin d'Aumeries
Assistance for programming : Marc-Olivier Méhu
Technical & hardware support : Manuel Goepfert

Contact : metmap@orbifly.com




SOURCES & CREDITS :

   NOAA